Nearby METAR Reports

 

KPMP - Pompano Beach, Florida, USA
Distance from station: NNW 3mi, 5km
Updated: 09/22/2017 6:53am
Few Clouds
Few Clouds
 Wind from calm
Wind: Calm
Temperature: 79°F , 26°C
Dew Point: 75°F , 24°C
Humidity: 89%
Barometer: 29.88 inHg , 1011.9 hPa
Clouds: Few Clouds
Visibility: 9 miles , 14 km
Cloud details: Few Clouds 2200 ft
2017/09/22 10:53 KPMP 221053Z 00000KT 9SM FEW022 26/24 A2988 RMK AO2 SLP119 T02560244
KFXE - Ft Lauderd/Exec, Florida, USA
Distance from station: W 6mi, 9km
Updated: 09/22/2017 6:53am
Clear
Clear
 Wind from calm
Wind: Calm
Temperature: 79°F , 26°C
Dew Point: 75°F , 24°C
Humidity: 89%
Barometer: 29.88 inHg , 1011.9 hPa
Clouds: Clear
Visibility: 10 miles , 16 km
2017/09/22 10:53 KFXE 221053Z 00000KT 10SM CLR 26/24 A2988 RMK AO2 SLP120 T02560244
 
KFLL - Ft Lauderd/Holly, Florida, USA
Distance from station: SSW 11mi, 17km
Updated: 09/22/2017 6:53am
Few Clouds
Few Clouds
 Wind from NNW
Wind: NNW 3 mph , 6 km/h
Temperature: 79°F , 26°C
Dew Point: 79°F , 26°C
Humidity: 100%
Barometer: 29.87 inHg , 1011.5 hPa
Clouds: Few Clouds
Visibility: 10 miles , 16 km
Cloud details: Few Clouds 2300 ft
Few Clouds 4500 ft
2017/09/22 10:53 KFLL 221053Z 34003KT 10SM FEW023 FEW045 26/26 A2987 RMK AO2 SLP115 T02610256
KBCT - Boca Raton, Florida, USA
Distance from station: N 12mi, 19km
Updated: 09/22/2017 6:52am
Few Clouds
Few Clouds
 Wind from calm
Wind: Calm
Clouds: Few Clouds
Visibility: 10 miles , 16 km
Cloud details: Few Clouds 2100 ft
2017/09/22 10:52 KBCT 221052Z 00000KT 10SM FEW021 M/M A2988
 
KHWO - Hollywood, Florida, USA
Distance from station: SSW 17mi, 27km
Updated: 09/22/2017 6:53am
Partly cloudy
Partly cloudy
 Wind from calm
Wind: Calm
Temperature: 79°F , 26°C
Dew Point: 75°F , 24°C
Humidity: 89%
Barometer: 29.89 inHg , 1012.2 hPa
Clouds: Partly cloudy
Visibility: 10 miles , 16 km
Cloud details: Partly cloudy 2500 ft
2017/09/22 10:53 KHWO 221053Z 00000KT 10SM SCT025 26/24 A2989 RMK AO2 SLP122 T02560244
KOPF - Miami/Opa Locka, Florida, USA
Distance from station: SSW 24mi, 38km
Updated: 09/22/2017 6:53am
Clear
Clear
 Wind from calm
Wind: Calm
Temperature: 79°F , 26°C
Dew Point: 75°F , 24°C
Humidity: 89%
Barometer: 29.89 inHg , 1012.2 hPa
Clouds: Clear
Visibility: 10 miles , 16 km
2017/09/22 10:53 KOPF 221053Z 00000KT 10SM CLR 26/24 A2989 RMK AO2 SLP121 T02610244
 
KMIA - Miami, Florida, USA
Distance from station: SSW 31mi, 50km
Updated: 09/22/2017 6:53am
Few Clouds
Few Clouds
 Wind from calm
Wind: Calm
Temperature: 81°F , 27°C
Heat Index: 89°F , 32°C
Dew Point: 79°F , 26°C
Humidity: 94%
Barometer: 29.88 inHg , 1011.9 hPa
Clouds: Few Clouds
Visibility: 10 miles , 16 km
Cloud details: Few Clouds 2300 ft
Few Clouds 25000 ft
2017/09/22 10:53 KMIA 221053Z 00000KT 10SM FEW023 FEW250 27/26 A2988 RMK AO2 SLP118 CB DSNT E AND SE MOV W T02720256
KPBI - West Palm Beach, Florida, USA
Distance from station: N 33mi, 52km
Updated: 09/22/2017 6:53am
Partly cloudy
Partly cloudy
 Wind from NW
Wind: NW 3 mph , 6 km/h
Temperature: 79°F , 26°C
Dew Point: 73°F , 23°C
Humidity: 84%
Barometer: 29.89 inHg , 1012.2 hPa
Clouds: Partly cloudy
Visibility: 10 miles , 16 km
Cloud details: Partly cloudy 2200 ft
Partly cloudy 20000 ft
2017/09/22 10:53 KPBI 221053Z 32003KT 10SM SCT022TCU SCT200 26/23 A2989 RMK AO2 SLP120 TCU E AND DSNT N T02610233
 
KTMB - Miami/Tamiami, Florida, USA
Distance from station: SSW 44mi, 71km
Updated: 09/22/2017 6:53am
Clear
Clear
 Wind from calm
Wind: Calm
Temperature: 77°F , 25°C
Dew Point: 75°F , 24°C
Humidity: 94%
Barometer: 29.88 inHg , 1011.9 hPa
Clouds: Clear
Visibility: 10 miles , 16 km
2017/09/22 10:53 KTMB 221053Z 00000KT 10SM CLR 25/24 A2988 RMK AO2 SLP117 T02500239 $